Themabewertung:
  • 0 Bewertung(en) - 0 im Durchschnitt
  • 1
  • 2
  • 3
  • 4
  • 5
Runwaykonfiguration
#1
Aktuelle Runwaykonfiguration werden hier gepostet.
Gruß
Olav

Olav`s Spotterbrowser
Meine Bilder bei flugzeugbilder.de
Meine Bilder bei planespotters.net

Es geht nicht darum, dem Leben mehr Tage zu geben, sondern den Tagen mehr Leben.

Cicely Saunders
Zitieren
#2
EDDH/HAM am 29.05.2017, 0845

Landing: 23

Takeoff : 33

Gruß

Helmut

EDDH
vom 29.05. um 05:50 UTC
Wind 7 kt aus 300°
Sichtweite 10 km oder mehr
gering bewölkt in 1000 ft
aufgebrochene Bewölkung in 1100 ft
Temperatur 15.0°C
Taupunkt 13.0°C
Luftfeuchtigkeit 88%
Luftdruck 1015 hPa
EDDH 290550Z 30007KT 9999 FEW010 BKN011 15/13 Q1015 BECMG SCT012
"Nichts im Leben muss gefürchtet werden.
Es muss nur verstanden werden"

Eileen Collins, Astronautin
Zitieren
#3
EDDH/HAM am 29.05.2017, 1145

Landing: 05

Takeoff : 33

Gruß

Helmut

EDDH
vom 29.05. um 08:50 UTC
Wind 9 kt aus 300°
Sichtweite 10 km oder mehr
gering bewölkt in 1400 ft
aufgebrochene Bewölkung in 1700 ft
Temperatur 17.0°C
Taupunkt 13.0°C
Luftfeuchtigkeit 77%
Luftdruck 1015 hPa
keine wesentliche Wetteränderung innerhalb den nächsten 2 Stunden zu erwarten
EDDH 290850Z 30009KT 250V340 9999 FEW014 BKN017 17/13 Q1015 NOSIG
"Nichts im Leben muss gefürchtet werden.
Es muss nur verstanden werden"

Eileen Collins, Astronautin
Zitieren


Möglicherweise verwandte Themen...
Thema Verfasser Antworten Ansichten Letzter Beitrag
  EDDH/HAM 29.05.2017 (Montag) Ankündigung Axel1967 0 235 Gestern, 18:36
Letzter Beitrag: Axel1967
  EDDH/HAM 28.05.2017 (Sonntag) Ankündigung Axel1967 2 371 Gestern, 09:17
Letzter Beitrag: lichtjahre
  EDDH/HAM 27.05.2017 (Samstag) Ankündigung Axel1967 0 385 26.05.2017, 17:07
Letzter Beitrag: Axel1967
  EDDH/HAM 26.05.2017 (Freitag) Ankündigung Axel1967 0 333 25.05.2017, 14:27
Letzter Beitrag: Axel1967
  EDDH/HAM 25.05.2017 (Donnerstag) Ankündigung Axel1967 1 349 25.05.2017, 10:30
Letzter Beitrag: Hamburger
  EDDH/HAM 23.05.2017 (Dienstag) Ankündigung Axel1967 0 369 22.05.2017, 21:03
Letzter Beitrag: Axel1967
  EDDH/HAM 22.05.2017 (Montag) Ankündigung Axel1967 0 400 21.05.2017, 20:25
Letzter Beitrag: Axel1967
  EDDH/HAM 21.05.2017 (Sonntag) Ankündigung Axel1967 2 523 21.05.2017, 14:58
Letzter Beitrag: Hamburger

Gehe zu:


Benutzer, die gerade dieses Thema anschauen: 1 Gast/Gäste